createdAt,value
2022-07-29T00:01:19.587Z,24.10
2022-07-29T00:03:47.653Z,24.10
2022-07-29T00:06:16.437Z,24.10
2022-07-29T00:08:43.992Z,24.10
2022-07-29T00:11:11.523Z,24.10
2022-07-29T00:13:39.627Z,24.00
2022-07-29T00:16:07.003Z,24.00
2022-07-29T00:18:34.343Z,23.90
2022-07-29T00:21:01.727Z,23.90
2022-07-29T00:23:30.688Z,23.80
2022-07-29T00:25:59.172Z,23.80
2022-07-29T00:28:26.631Z,23.80
2022-07-29T00:30:54.231Z,23.70
2022-07-29T00:33:22.063Z,23.60
2022-07-29T00:35:49.654Z,23.60
2022-07-29T00:38:19.667Z,23.50
2022-07-29T00:40:48.127Z,23.50
2022-07-29T00:43:17.482Z,23.40
2022-07-29T00:45:45.860Z,23.40
2022-07-29T00:48:13.257Z,23.40
2022-07-29T00:50:40.827Z,23.40
2022-07-29T00:53:11.114Z,23.30
2022-07-29T00:55:38.940Z,23.20
2022-07-29T00:58:07.928Z,23.20
2022-07-29T01:00:35.627Z,23.20
2022-07-29T01:03:04.599Z,23.10
2022-07-29T01:05:48.227Z,23.00
2022-07-29T01:08:20.328Z,23.00
2022-07-29T01:10:49.102Z,23.00
2022-07-29T01:13:17.989Z,22.90
2022-07-29T01:15:51.567Z,22.90
2022-07-29T01:18:25.593Z,22.80
2022-07-29T01:21:30.762Z,22.80
2022-07-29T01:24:38.603Z,22.70
2022-07-29T01:27:36.792Z,22.70
2022-07-29T01:30:05.656Z,22.60
2022-07-29T01:32:39.467Z,22.60
2022-07-29T01:35:11.484Z,22.60
2022-07-29T01:37:52.440Z,22.60
2022-07-29T01:40:26.334Z,22.60
2022-07-29T01:42:58.013Z,22.60
2022-07-29T01:45:33.470Z,22.60
2022-07-29T01:48:29.082Z,22.70
2022-07-29T01:51:20.983Z,22.70
2022-07-29T01:54:09.897Z,22.80
2022-07-29T01:56:39.311Z,22.70
2022-07-29T01:59:09.541Z,22.70
2022-07-29T02:01:40.936Z,22.70
2022-07-29T02:04:11.272Z,22.70
2022-07-29T02:06:56.627Z,22.70
2022-07-29T02:09:26.847Z,22.70
2022-07-29T02:11:56.679Z,22.70
2022-07-29T02:14:26.006Z,22.80
2022-07-29T02:16:57.459Z,22.80
2022-07-29T02:19:28.932Z,22.80
2022-07-29T02:22:00.144Z,22.80
2022-07-29T02:24:28.734Z,22.80
2022-07-29T02:26:59.838Z,22.80
2022-07-29T02:29:30.642Z,22.80
2022-07-29T02:32:00.196Z,22.80
2022-07-29T02:34:29.615Z,22.80
2022-07-29T02:36:57.976Z,22.80
2022-07-29T02:39:28.086Z,22.70
2022-07-29T02:42:05.046Z,22.70
2022-07-29T02:44:35.003Z,22.70
2022-07-29T02:47:18.657Z,22.70
2022-07-29T02:50:12.822Z,22.80
2022-07-29T02:52:49.824Z,22.80
2022-07-29T02:55:40.773Z,22.90
2022-07-29T02:58:35.232Z,22.90
2022-07-29T03:01:22.160Z,22.90
2022-07-29T03:03:53.600Z,22.80
2022-07-29T03:06:37.630Z,22.80
2022-07-29T03:09:12.289Z,22.70
2022-07-29T03:11:49.574Z,22.70
2022-07-29T03:14:22.447Z,22.70
2022-07-29T03:16:51.307Z,22.70
2022-07-29T03:19:19.755Z,22.70
2022-07-29T03:21:47.240Z,22.70
2022-07-29T03:24:33.919Z,22.60
2022-07-29T03:27:02.542Z,22.60
2022-07-29T03:29:33.803Z,22.60
2022-07-29T03:32:08.666Z,22.50
2022-07-29T03:34:37.912Z,22.50
2022-07-29T03:37:07.412Z,22.50
2022-07-29T03:39:41.742Z,22.50
2022-07-29T03:42:12.472Z,22.40
2022-07-29T03:44:42.653Z,22.40
2022-07-29T03:47:12.371Z,22.40
2022-07-29T03:49:42.491Z,22.40
2022-07-29T03:52:10.776Z,22.40
2022-07-29T03:54:38.841Z,22.40
2022-07-29T03:57:08.897Z,22.50
2022-07-29T03:59:37.435Z,22.50
2022-07-29T04:02:06.937Z,22.50
2022-07-29T04:04:36.321Z,22.50
2022-07-29T04:07:04.475Z,22.50
2022-07-29T04:09:32.305Z,22.50
2022-07-29T04:12:02.919Z,22.50
2022-07-29T04:14:33.739Z,22.60
2022-07-29T04:17:03.177Z,22.60
2022-07-29T04:19:31.552Z,22.70
2022-07-29T04:22:00.997Z,22.60
2022-07-29T04:24:29.136Z,22.60
2022-07-29T04:26:57.520Z,22.60
2022-07-29T04:29:25.596Z,22.60
2022-07-29T04:31:53.136Z,22.60
2022-07-29T04:34:20.896Z,22.70
2022-07-29T04:36:48.509Z,22.70
2022-07-29T04:39:22.144Z,22.70
2022-07-29T04:41:52.457Z,22.70
2022-07-29T04:44:28.782Z,22.70
2022-07-29T04:46:56.671Z,22.70
2022-07-29T04:49:24.015Z,22.80
2022-07-29T04:51:51.868Z,22.80
2022-07-29T04:54:19.900Z,22.80
2022-07-29T04:56:48.445Z,22.80
2022-07-29T04:59:16.239Z,22.80
2022-07-29T05:01:43.786Z,22.80
2022-07-29T05:04:11.597Z,22.90
2022-07-29T05:06:38.900Z,23.00
2022-07-29T05:09:06.276Z,23.00
2022-07-29T05:11:33.880Z,23.00
2022-07-29T05:14:01.266Z,23.10
2022-07-29T05:16:30.562Z,23.10
2022-07-29T05:18:57.965Z,23.10
2022-07-29T05:21:25.459Z,23.10
2022-07-29T05:23:53.369Z,23.10
2022-07-29T05:26:20.816Z,23.10
2022-07-29T05:28:48.165Z,23.10
2022-07-29T05:31:18.926Z,23.20
2022-07-29T05:33:47.141Z,23.20
2022-07-29T05:36:14.501Z,23.20
2022-07-29T05:38:42.972Z,23.20
2022-07-29T05:41:10.293Z,23.20
2022-07-29T05:43:37.834Z,23.20
2022-07-29T05:46:05.381Z,23.20
2022-07-29T05:48:33.765Z,23.20
2022-07-29T05:51:01.675Z,23.20
2022-07-29T05:53:30.126Z,23.20
2022-07-29T05:55:57.861Z,23.20
2022-07-29T05:58:25.367Z,23.20
2022-07-29T06:00:52.911Z,23.20
2022-07-29T06:03:20.467Z,23.10
2022-07-29T06:05:48.286Z,23.10
2022-07-29T06:08:15.575Z,23.10
2022-07-29T06:10:43.140Z,23.10
2022-07-29T06:13:13.756Z,23.10
2022-07-29T06:15:41.537Z,23.10
2022-07-29T06:18:11.137Z,23.10
2022-07-29T06:20:38.938Z,23.10
2022-07-29T06:23:06.521Z,23.10
2022-07-29T06:25:36.152Z,23.20
2022-07-29T06:28:03.643Z,23.20
2022-07-29T06:30:31.562Z,23.30
2022-07-29T06:32:59.151Z,23.30
2022-07-29T06:35:41.801Z,23.40
2022-07-29T06:38:31.743Z,23.40
2022-07-29T06:41:05.139Z,23.40
2022-07-29T06:43:52.465Z,23.40
2022-07-29T06:46:24.343Z,23.40
2022-07-29T06:48:53.447Z,23.50
2022-07-29T06:51:23.696Z,23.40
2022-07-29T06:53:59.564Z,23.40
2022-07-29T06:56:39.177Z,23.40
2022-07-29T06:59:08.780Z,23.40
2022-07-29T07:01:38.819Z,23.40
2022-07-29T07:04:06.688Z,23.50
2022-07-29T07:06:34.202Z,23.50
2022-07-29T07:09:02.118Z,23.50
2022-07-29T07:11:30.354Z,23.50
2022-07-29T07:14:02.652Z,23.60
2022-07-29T07:16:31.596Z,23.60
2022-07-29T07:18:59.250Z,23.60
2022-07-29T07:21:26.798Z,23.70
2022-07-29T07:23:58.765Z,23.70
2022-07-29T07:26:27.106Z,23.70
2022-07-29T07:28:54.919Z,23.80
2022-07-29T07:31:22.447Z,23.80
2022-07-29T07:33:50.010Z,23.80
2022-07-29T07:36:17.319Z,23.80
2022-07-29T07:38:45.451Z,23.90
2022-07-29T07:41:12.970Z,23.90
2022-07-29T07:43:40.332Z,23.90
2022-07-29T07:46:07.833Z,24.00
2022-07-29T07:48:36.142Z,24.00
2022-07-29T07:51:03.711Z,24.10
2022-07-29T07:53:32.539Z,24.10
2022-07-29T07:56:10.342Z,24.20
2022-07-29T07:58:38.868Z,24.20
2022-07-29T08:01:06.619Z,24.30
2022-07-29T08:03:35.269Z,24.30
2022-07-29T08:06:04.011Z,24.30
2022-07-29T08:08:31.331Z,24.40
2022-07-29T08:10:59.367Z,24.40
2022-07-29T08:13:32.882Z,24.40
2022-07-29T08:16:03.299Z,24.40
2022-07-29T08:18:33.139Z,24.40
2022-07-29T08:21:00.874Z,24.40
2022-07-29T08:23:46.893Z,24.40
2022-07-29T08:26:17.579Z,24.40
2022-07-29T08:28:47.716Z,24.50
2022-07-29T08:31:16.580Z,24.50
2022-07-29T08:33:44.639Z,24.60
2022-07-29T08:36:12.360Z,24.60
2022-07-29T08:38:40.149Z,24.70
2022-07-29T08:41:07.582Z,24.70
2022-07-29T08:43:39.659Z,24.80
2022-07-29T08:46:07.286Z,24.90
2022-07-29T08:48:35.720Z,24.90
2022-07-29T08:51:04.375Z,25.00
2022-07-29T08:53:33.310Z,25.00
2022-07-29T08:56:01.639Z,25.00
2022-07-29T08:58:36.516Z,25.00
2022-07-29T09:01:06.879Z,25.10
2022-07-29T09:03:38.962Z,25.10
2022-07-29T09:06:07.918Z,25.20
2022-07-29T09:08:38.299Z,25.30
2022-07-29T09:11:05.962Z,25.30
2022-07-29T09:13:33.508Z,25.40
2022-07-29T09:16:05.683Z,25.50
2022-07-29T09:18:45.259Z,25.60
2022-07-29T09:21:34.598Z,25.60
2022-07-29T09:24:11.585Z,25.70
2022-07-29T09:26:42.197Z,25.80
2022-07-29T09:29:15.845Z,25.90
2022-07-29T09:31:48.826Z,26.00
2022-07-29T09:34:18.694Z,26.10
2022-07-29T09:36:49.213Z,26.10
2022-07-29T09:39:28.155Z,26.10
2022-07-29T09:41:57.575Z,26.10
2022-07-29T09:44:26.699Z,26.10
2022-07-29T09:47:09.251Z,26.10
2022-07-29T09:49:51.423Z,26.10
2022-07-29T09:52:18.763Z,26.10
2022-07-29T09:54:47.899Z,26.10
2022-07-29T09:57:31.233Z,26.10
2022-07-29T10:00:01.772Z,26.10
2022-07-29T10:02:34.799Z,26.20
2022-07-29T10:05:05.739Z,26.20
2022-07-29T10:07:49.382Z,26.20
2022-07-29T10:10:32.121Z,26.20
2022-07-29T10:13:07.107Z,26.20
2022-07-29T10:15:42.201Z,26.30
2022-07-29T10:18:11.081Z,26.30
2022-07-29T10:20:39.221Z,26.40
2022-07-29T10:23:07.192Z,26.40
2022-07-29T10:25:34.953Z,26.50
2022-07-29T10:28:02.271Z,26.60
2022-07-29T10:30:29.989Z,26.80
2022-07-29T10:33:22.096Z,26.90
2022-07-29T10:36:08.044Z,27.10
2022-07-29T10:39:05.670Z,27.40
2022-07-29T10:42:04.050Z,27.60
2022-07-29T10:44:34.584Z,27.70
2022-07-29T10:47:02.925Z,27.70
2022-07-29T10:49:31.301Z,27.80
2022-07-29T10:52:10.399Z,27.80
2022-07-29T10:54:42.489Z,27.90
2022-07-29T10:57:25.706Z,28.10
2022-07-29T11:00:16.857Z,28.30
2022-07-29T11:02:47.591Z,28.50
2022-07-29T11:05:20.628Z,28.60
2022-07-29T11:08:19.588Z,28.70
2022-07-29T11:10:53.891Z,28.80
2022-07-29T11:13:52.253Z,28.90
2022-07-29T11:16:25.218Z,29.10
2022-07-29T11:19:13.337Z,29.20
2022-07-29T11:21:55.171Z,29.30
2022-07-29T11:24:34.793Z,29.40
2022-07-29T11:27:18.064Z,29.40
2022-07-29T11:29:55.958Z,29.50
2022-07-29T11:32:29.426Z,29.60
2022-07-29T11:35:37.033Z,29.60
2022-07-29T11:38:32.128Z,29.60
2022-07-29T11:41:26.202Z,29.60
2022-07-29T11:43:59.863Z,29.80
2022-07-29T11:46:57.649Z,30.00
2022-07-29T11:49:32.303Z,30.20
2022-07-29T11:52:04.902Z,30.50
2022-07-29T11:54:57.223Z,30.70
2022-07-29T11:57:36.170Z,30.90
2022-07-29T12:00:12.599Z,31.10
2022-07-29T12:02:48.616Z,31.30
2022-07-29T12:05:36.483Z,31.40
2022-07-29T12:08:15.802Z,31.50
2022-07-29T12:10:44.690Z,31.50
2022-07-29T12:13:13.006Z,31.40
2022-07-29T12:15:45.985Z,31.20
2022-07-29T12:18:24.243Z,31.10
2022-07-29T12:21:03.265Z,31.10
2022-07-29T12:23:35.754Z,31.20
2022-07-29T12:26:10.548Z,31.30
2022-07-29T12:28:40.575Z,31.40
2022-07-29T12:31:41.750Z,31.50
2022-07-29T12:34:06.224Z,31.60
2022-07-29T12:36:34.011Z,31.70
2022-07-29T12:39:01.803Z,31.90
2022-07-29T12:41:30.883Z,31.90
2022-07-29T12:43:58.288Z,32.00
2022-07-29T12:46:25.645Z,32.10
2022-07-29T12:48:59.612Z,32.10
2022-07-29T12:51:40.800Z,32.30
2022-07-29T12:54:14.909Z,32.40
2022-07-29T12:56:44.962Z,32.50
2022-07-29T12:59:23.878Z,32.60
2022-07-29T13:01:53.735Z,32.80
2022-07-29T13:04:32.818Z,32.80
2022-07-29T13:07:04.564Z,32.80
2022-07-29T13:09:50.224Z,32.80
2022-07-29T13:12:17.798Z,32.80
2022-07-29T13:14:50.213Z,32.70
2022-07-29T13:17:24.946Z,32.70
2022-07-29T13:20:08.889Z,32.80
2022-07-29T13:22:37.141Z,32.70
2022-07-29T13:25:04.938Z,32.60
2022-07-29T13:27:37.729Z,32.40
2022-07-29T13:30:10.413Z,32.20
2022-07-29T13:32:39.177Z,32.10
2022-07-29T13:35:09.287Z,32.00
2022-07-29T13:37:39.813Z,32.00
2022-07-29T13:40:09.199Z,32.00
2022-07-29T13:42:37.348Z,32.00
2022-07-29T13:45:06.036Z,32.10
2022-07-29T13:47:33.879Z,32.10
2022-07-29T13:50:03.014Z,32.10
2022-07-29T13:52:31.031Z,32.20
2022-07-29T13:55:02.394Z,32.20
2022-07-29T13:57:31.236Z,32.10
2022-07-29T13:59:59.445Z,32.10
2022-07-29T14:02:27.164Z,32.20
2022-07-29T14:04:57.055Z,32.30
2022-07-29T14:07:25.341Z,32.40
2022-07-29T14:09:53.642Z,32.50
2022-07-29T14:12:21.255Z,32.50
2022-07-29T14:14:48.710Z,32.60
2022-07-29T14:17:16.894Z,32.60
2022-07-29T14:19:46.395Z,32.60
2022-07-29T14:22:14.051Z,32.60
2022-07-29T14:24:41.587Z,32.70
2022-07-29T14:27:10.338Z,32.60
2022-07-29T14:29:38.750Z,32.50
2022-07-29T14:32:08.538Z,32.30
2022-07-29T14:34:37.873Z,32.20
2022-07-29T14:37:06.917Z,32.10
2022-07-29T14:39:39.524Z,32.10
2022-07-29T14:42:11.563Z,32.00
2022-07-29T14:44:43.312Z,32.00
2022-07-29T14:47:12.356Z,32.00
2022-07-29T14:49:39.963Z,31.90
2022-07-29T14:52:07.443Z,31.90
2022-07-29T14:54:35.559Z,31.80
2022-07-29T14:57:03.037Z,31.80
2022-07-29T14:59:30.671Z,31.70
2022-07-29T15:01:58.364Z,31.60
2022-07-29T15:04:26.417Z,31.50
2022-07-29T15:06:54.006Z,31.50
2022-07-29T15:09:22.203Z,31.40
2022-07-29T15:11:49.603Z,31.30
2022-07-29T15:14:17.302Z,31.20
2022-07-29T15:16:48.115Z,31.10
2022-07-29T15:19:15.724Z,31.00
2022-07-29T15:21:47.998Z,30.90
2022-07-29T15:24:20.155Z,30.80
2022-07-29T15:26:48.570Z,30.70
2022-07-29T15:29:16.710Z,30.70
2022-07-29T15:31:44.952Z,30.60
2022-07-29T15:34:13.517Z,30.50
2022-07-29T15:36:52.846Z,30.40
2022-07-29T15:39:22.477Z,30.30
2022-07-29T15:41:50.709Z,30.20
2022-07-29T15:44:18.674Z,30.20
2022-07-29T15:47:04.330Z,30.10
2022-07-29T15:49:47.267Z,30.00
2022-07-29T15:52:25.920Z,29.90
2022-07-29T15:54:58.476Z,29.80
2022-07-29T15:57:26.101Z,29.70
2022-07-29T15:59:54.108Z,29.70
2022-07-29T16:02:23.546Z,29.60
2022-07-29T16:04:50.931Z,29.50
2022-07-29T16:07:18.626Z,29.50
2022-07-29T16:09:50.740Z,29.40
2022-07-29T16:12:21.916Z,29.40
2022-07-29T16:14:51.591Z,29.40
2022-07-29T16:17:19.791Z,29.30
2022-07-29T16:19:47.313Z,29.30
2022-07-29T16:22:14.689Z,29.30
2022-07-29T16:24:42.581Z,29.30
2022-07-29T16:27:10.293Z,29.30
2022-07-29T16:29:37.696Z,29.30
2022-07-29T16:32:06.775Z,29.20
2022-07-29T16:34:34.585Z,29.20
2022-07-29T16:37:03.233Z,29.20
2022-07-29T16:39:30.840Z,29.10
2022-07-29T16:42:00.819Z,29.10
2022-07-29T16:44:29.988Z,29.10
2022-07-29T16:46:58.920Z,29.10
2022-07-29T16:49:27.324Z,29.00
2022-07-29T16:51:54.911Z,29.00
2022-07-29T16:54:22.853Z,29.00
2022-07-29T16:56:50.393Z,29.00
2022-07-29T16:59:17.867Z,28.90
2022-07-29T17:01:45.287Z,28.90
2022-07-29T17:04:25.055Z,28.90
2022-07-29T17:06:58.764Z,28.80
2022-07-29T17:09:26.481Z,28.70
2022-07-29T17:11:56.459Z,28.70
2022-07-29T17:14:26.445Z,28.60
2022-07-29T17:17:01.234Z,28.60
2022-07-29T17:19:31.896Z,28.50
2022-07-29T17:22:07.007Z,28.50
2022-07-29T17:24:39.371Z,28.50
2022-07-29T17:27:09.144Z,28.40
2022-07-29T17:29:37.100Z,28.40
2022-07-29T17:32:07.572Z,28.40
2022-07-29T17:34:36.885Z,28.30
2022-07-29T17:37:05.757Z,28.30
2022-07-29T17:39:35.894Z,28.20
2022-07-29T17:42:04.514Z,28.20
2022-07-29T17:44:36.233Z,28.10
2022-07-29T17:47:04.654Z,28.10
2022-07-29T17:49:37.345Z,28.00
2022-07-29T17:52:05.963Z,28.00
2022-07-29T17:54:33.739Z,27.90
2022-07-29T17:57:04.740Z,27.90
2022-07-29T17:59:32.345Z,27.80
2022-07-29T18:02:00.102Z,27.70
2022-07-29T18:04:28.934Z,27.70
2022-07-29T18:06:56.556Z,27.60
2022-07-29T18:09:24.224Z,27.60
2022-07-29T18:11:52.095Z,27.50
2022-07-29T18:14:19.540Z,27.40
2022-07-29T18:16:48.843Z,27.30
2022-07-29T18:19:17.155Z,27.30
2022-07-29T18:21:54.219Z,27.20
2022-07-29T18:24:25.966Z,27.10
2022-07-29T18:26:54.029Z,27.10
2022-07-29T18:29:21.390Z,27.00
2022-07-29T18:31:49.203Z,27.00
2022-07-29T18:34:17.482Z,26.90
2022-07-29T18:36:46.638Z,26.90
2022-07-29T18:39:20.535Z,26.80
2022-07-29T18:41:50.178Z,26.80
2022-07-29T18:44:22.852Z,26.70
2022-07-29T18:46:54.642Z,26.70
2022-07-29T18:49:23.410Z,26.60
2022-07-29T18:51:51.601Z,26.60
2022-07-29T18:54:21.647Z,26.60
2022-07-29T18:56:49.876Z,26.60
2022-07-29T18:59:20.014Z,26.50
2022-07-29T19:01:50.697Z,26.50
2022-07-29T19:04:18.888Z,26.50
2022-07-29T19:06:46.533Z,26.40
2022-07-29T19:09:14.094Z,26.40
2022-07-29T19:11:41.571Z,26.40
2022-07-29T19:14:09.418Z,26.40
2022-07-29T19:16:36.717Z,26.30
2022-07-29T19:19:05.274Z,26.30
2022-07-29T19:21:32.701Z,26.30
2022-07-29T19:24:06.206Z,26.20
2022-07-29T19:26:44.531Z,26.10
2022-07-29T19:29:12.330Z,26.10
2022-07-29T19:31:40.840Z,26.00
2022-07-29T19:34:09.431Z,26.00
2022-07-29T19:36:37.206Z,26.00
2022-07-29T19:39:05.217Z,26.00
2022-07-29T19:41:33.933Z,26.00
2022-07-29T19:44:01.561Z,26.00
2022-07-29T19:46:30.073Z,26.00
2022-07-29T19:48:57.511Z,25.90
2022-07-29T19:51:25.061Z,25.90
2022-07-29T19:53:52.817Z,25.90
2022-07-29T19:56:20.347Z,25.90
2022-07-29T19:58:48.294Z,25.90
2022-07-29T20:01:16.839Z,25.90
2022-07-29T20:03:45.082Z,25.90
2022-07-29T20:06:13.401Z,25.90
2022-07-29T20:08:40.718Z,25.90
2022-07-29T20:11:08.332Z,25.90
2022-07-29T20:13:36.819Z,25.80
2022-07-29T20:16:09.095Z,25.80
2022-07-29T20:18:36.623Z,25.80
2022-07-29T20:21:04.859Z,25.80
2022-07-29T20:23:33.457Z,25.80
2022-07-29T20:26:01.247Z,25.80
2022-07-29T20:28:28.679Z,25.80
2022-07-29T20:30:56.221Z,25.80
2022-07-29T20:33:23.834Z,25.80
2022-07-29T20:35:51.100Z,25.80
2022-07-29T20:38:18.645Z,25.80
2022-07-29T20:40:46.449Z,25.80
2022-07-29T20:43:14.397Z,25.70
2022-07-29T20:45:41.798Z,25.70
2022-07-29T20:48:11.126Z,25.60
2022-07-29T20:50:46.377Z,25.40
2022-07-29T20:53:15.397Z,25.20
2022-07-29T20:55:43.261Z,25.00
2022-07-29T20:58:10.792Z,24.80
2022-07-29T21:00:38.551Z,24.60
2022-07-29T21:03:05.965Z,24.30
2022-07-29T21:05:33.512Z,23.90
2022-07-29T21:08:00.999Z,23.60
2022-07-29T21:10:30.016Z,23.30
2022-07-29T21:12:57.346Z,23.10
2022-07-29T21:15:25.067Z,23.00
2022-07-29T21:18:00.287Z,23.00
2022-07-29T21:20:28.056Z,22.90
2022-07-29T21:22:56.538Z,22.90
2022-07-29T21:25:25.178Z,22.90
2022-07-29T21:28:12.067Z,22.90
2022-07-29T21:30:39.626Z,22.80
2022-07-29T21:33:07.024Z,22.90
2022-07-29T21:38:22.283Z,22.90
2022-07-29T21:40:51.982Z,22.80
2022-07-29T21:43:20.242Z,22.80
2022-07-29T21:45:53.749Z,22.80
2022-07-29T21:48:22.857Z,22.70
2022-07-29T21:50:52.616Z,22.70
2022-07-29T21:53:22.194Z,22.70
2022-07-29T21:55:57.644Z,22.70
2022-07-29T21:58:25.968Z,22.70
2022-07-29T22:00:54.508Z,22.70
2022-07-29T22:03:21.837Z,22.70
2022-07-29T22:05:49.562Z,22.70
2022-07-29T22:08:17.414Z,22.80
2022-07-29T22:10:45.169Z,22.80
2022-07-29T22:13:12.826Z,22.70
2022-07-29T22:15:44.095Z,22.70
2022-07-29T22:18:20.782Z,22.60
2022-07-29T22:20:50.283Z,22.60
2022-07-29T22:23:17.830Z,22.50
2022-07-29T22:25:45.350Z,22.50
2022-07-29T22:28:12.922Z,22.40
2022-07-29T22:30:40.854Z,22.40
2022-07-29T22:33:08.473Z,22.40
2022-07-29T22:35:36.272Z,22.40
2022-07-29T22:38:03.803Z,22.40
2022-07-29T22:40:32.901Z,22.40
2022-07-29T22:43:02.132Z,22.40
2022-07-29T22:45:29.671Z,22.30
2022-07-29T22:47:59.501Z,22.30
2022-07-29T22:50:27.237Z,22.30
2022-07-29T22:52:54.788Z,22.30
2022-07-29T22:55:22.322Z,22.30
2022-07-29T22:57:49.801Z,22.30
2022-07-29T23:00:17.307Z,22.20
2022-07-29T23:02:44.863Z,22.20
2022-07-29T23:05:16.211Z,22.20
2022-07-29T23:07:44.381Z,22.30
2022-07-29T23:10:13.711Z,22.30
2022-07-29T23:12:41.358Z,22.20
2022-07-29T23:15:09.248Z,22.20
2022-07-29T23:17:37.014Z,22.20
2022-07-29T23:20:08.060Z,22.20
2022-07-29T23:22:37.327Z,22.20
2022-07-29T23:25:06.706Z,22.20
2022-07-29T23:27:34.518Z,22.20
2022-07-29T23:30:03.312Z,22.10
2022-07-29T23:32:33.672Z,22.10
2022-07-29T23:35:01.953Z,22.10
2022-07-29T23:37:29.384Z,22.10
2022-07-29T23:39:57.432Z,22.10
2022-07-29T23:42:24.948Z,22.10
2022-07-29T23:44:52.796Z,22.20
2022-07-29T23:47:20.192Z,22.20
2022-07-29T23:49:50.284Z,22.10
2022-07-29T23:52:19.507Z,22.10
2022-07-29T23:54:47.000Z,22.10
2022-07-29T23:57:14.597Z,22.10
2022-07-29T23:59:41.911Z,22.10
